Time;durP1;ratioP1;P1;durP2;ratioP2;P2;SDS_P1;SDS_P2;PMS_P1;PMS_P2;Temp;Humidity;BMP_temperature;BMP_pressure;BME280_temperature;BME280_humidity;BME280_pressure;Samples;Min_cycle;Max_cycle;Signal;HPM_P1;HPM_P2
2023/06/30 00:01:54;;;;;;;2.17;0.32;;;;;;;15.44;100.00;100856.53;5029872;28;20080;-57
2023/06/30 00:04:22;;;;;;;0.40;0.10;;;;;;;15.39;100.00;100852.88;5042688;28;20036;-53
2023/06/30 00:06:51;;;;;;;0.47;0.25;;;;;;;15.21;100.00;100862.38;5041041;28;20513;-54
2023/06/30 00:09:19;;;;;;;0.15;0.15;;;;;;;15.07;100.00;100876.81;5038131;28;20038;-56
2023/06/30 00:11:46;;;;;;;0.43;0.15;;;;;;;14.92;100.00;100869.09;5039942;28;20091;-53
2023/06/30 00:14:11;;;;;;;1.00;0.30;;;;;;;14.87;100.00;100860.03;5036344;28;20060;-56
2023/06/30 00:16:36;;;;;;;1.33;0.28;;;;;;;14.76;100.00;100858.84;5034395;28;20055;-58
2023/06/30 00:19:02;;;;;;;1.70;0.43;;;;;;;14.64;100.00;100865.84;5039100;28;20118;-57
2023/06/30 00:21:27;;;;;;;1.23;0.25;;;;;;;14.59;100.00;100864.63;5035155;28;20448;-60
2023/06/30 00:23:52;;;;;;;0.55;0.10;;;;;;;14.56;100.00;100861.53;5037130;28;20025;-60
2023/06/30 00:26:18;;;;;;;0.50;0.10;;;;;;;14.57;100.00;100861.34;5039539;28;20513;-58
2023/06/30 00:28:43;;;;;;;1.65;0.20;;;;;;;14.48;100.00;100853.72;5034319;28;20033;-57
2023/06/30 00:31:08;;;;;;;0.10;0.10;;;;;;;14.42;100.00;100860.72;5031280;28;20120;-59
2023/06/30 00:33:35;;;;;;;1.40;0.22;;;;;;;14.38;100.00;100867.50;5028720;28;20028;-56
2023/06/30 00:36:00;;;;;;;1.70;0.30;;;;;;;14.27;100.00;100866.25;5040154;28;20032;-57
2023/06/30 00:38:25;;;;;;;2.17;0.00;;;;;;;14.18;100.00;100863.00;5036351;28;20045;-59
2023/06/30 00:40:51;;;;;;;0.40;0.08;;;;;;;14.13;100.00;100859.31;5031158;28;20029;-56
2023/06/30 00:43:16;;;;;;;2.88;1.08;;;;;;;14.01;100.00;100861.75;5032316;28;20036;-57
2023/06/30 00:45:41;;;;;;;0.57;0.25;;;;;;;14.00;100.00;100860.13;5036992;28;20022;-55
2023/06/30 00:48:07;;;;;;;0.95;0.05;;;;;;;13.93;100.00;100843.28;5037443;28;20041;-56
2023/06/30 00:50:33;;;;;;;1.40;0.10;;;;;;;13.89;100.00;100847.41;5036600;28;20025;-57
2023/06/30 00:52:59;;;;;;;0.35;0.15;;;;;;;13.84;100.00;100849.84;5037057;28;20327;-57
2023/06/30 00:55:25;;;;;;;0.20;0.20;;;;;;;13.76;100.00;100845.53;5032348;28;20082;-53
2023/06/30 00:57:51;;;;;;;0.10;0.00;;;;;;;13.71;100.00;100840.00;5029776;28;20036;-57
2023/06/30 01:00:17;;;;;;;0.00;0.00;;;;;;;13.57;100.00;100841.81;5038941;28;20037;-55
2023/06/30 01:03:01;;;;;;;0.20;0.10;;;;;;;13.52;100.00;100842.41;5040489;28;20057;-59
2023/06/30 01:05:35;;;;;;;0.32;0.00;;;;;;;13.48;100.00;100835.03;5037190;28;20067;-57
2023/06/30 01:08:12;;;;;;;0.00;0.00;;;;;;;13.40;100.00;100827.22;5034555;28;20631;-54
2023/06/30 01:10:40;;;;;;;0.28;0.15;;;;;;;13.36;100.00;100824.13;5037983;28;20037;-56
2023/06/30 01:13:06;;;;;;;0.30;0.00;;;;;;;13.32;100.00;100830.91;5033442;28;20095;-57
2023/06/30 01:15:33;;;;;;;2.10;0.10;;;;;;;13.27;100.00;100822.69;5028371;28;20029;-54
2023/06/30 01:18:01;;;;;;;0.80;0.52;;;;;;;13.14;100.00;100834.09;5032356;28;20033;-53
2023/06/30 01:20:32;;;;;;;0.43;0.00;;;;;;;13.01;100.00;100834.84;5034785;28;20039;-53
2023/06/30 01:23:27;;;;;;;0.00;0.00;;;;;;;12.92;100.00;100827.22;5038267;28;20029;-55
2023/06/30 01:25:53;;;;;;;1.10;0.10;;;;;;;12.83;100.00;100822.06;5030703;28;20029;-51
2023/06/30 01:28:18;;;;;;;1.25;1.25;;;;;;;12.82;100.00;100819.59;5030481;28;20067;-52
2023/06/30 01:30:44;;;;;;;0.98;0.28;;;;;;;12.82;100.00;100827.59;5030188;28;20067;-54
2023/06/30 01:33:10;;;;;;;0.80;0.10;;;;;;;12.80;100.00;100833.13;5029584;28;20048;-55
2023/06/30 01:35:36;;;;;;;2.35;0.20;;;;;;;12.74;100.00;100828.56;5037842;28;20430;-56
2023/06/30 01:38:02;;;;;;;0.25;0.20;;;;;;;12.77;100.00;100830.00;5036731;28;20041;-55
2023/06/30 01:40:28;;;;;;;0.08;0.05;;;;;;;12.76;100.00;100823.88;5037075;28;20039;-51
2023/06/30 01:42:55;;;;;;;0.82;0.30;;;;;;;12.72;100.00;100825.28;5035355;28;20041;-55
2023/06/30 01:45:23;;;;;;;0.68;0.28;;;;;;;12.59;100.00;100810.06;5026184;28;20557;-56
2023/06/30 01:47:49;;;;;;;0.50;0.50;;;;;;;12.44;100.00;100806.69;5031090;28;20421;-58
2023/06/30 01:50:15;;;;;;;3.70;0.20;;;;;;;12.41;100.00;100801.78;5039341;28;20036;-55
2023/06/30 01:52:40;;;;;;;1.00;0.47;;;;;;;12.33;100.00;100800.09;5025152;28;20037;-57
2023/06/30 01:55:06;;;;;;;0.15;0.00;;;;;;;12.25;100.00;100804.75;5031942;28;20029;-56
2023/06/30 01:57:31;;;;;;;3.00;0.40;;;;;;;12.21;100.00;100802.47;5028986;28;20082;-52
2023/06/30 01:59:57;;;;;;;1.50;0.32;;;;;;;12.20;100.00;100803.47;5036302;28;20025;-55
2023/06/30 02:02:22;;;;;;;1.48;0.13;;;;;;;12.22;100.00;100805.94;5033719;28;20052;-57
2023/06/30 02:04:47;;;;;;;0.10;0.08;;;;;;;12.19;100.00;100803.69;5033186;28;20051;-57
2023/06/30 02:07:12;;;;;;;0.10;0.10;;;;;;;12.15;100.00;100802.41;5038634;28;20670;-57
2023/06/30 02:09:38;;;;;;;1.02;0.70;;;;;;;12.12;100.00;100808.94;5036692;28;20037;-57
2023/06/30 02:12:04;;;;;;;0.63;0.25;;;;;;;12.13;100.00;100802.63;5030966;28;20490;-53
2023/06/30 02:14:29;;;;;;;0.28;0.00;;;;;;;12.07;100.00;100795.41;5031791;28;20033;-52
2023/06/30 02:16:54;;;;;;;2.40;0.93;;;;;;;12.00;100.00;100791.88;5032532;28;20375;-55
2023/06/30 02:19:23;;;;;;;0.50;0.00;;;;;;;11.87;100.00;100795.25;5035864;28;20033;-52
2023/06/30 02:21:49;;;;;;;0.47;0.47;;;;;;;11.79;100.00;100790.84;5028476;28;20029;-56
2023/06/30 02:24:14;;;;;;;2.08;0.10;;;;;;;11.75;100.00;100786.94;5032068;28;20168;-55
2023/06/30 02:26:40;;;;;;;2.03;0.85;;;;;;;11.76;100.00;100779.78;5027429;28;20029;-56
2023/06/30 02:29:05;;;;;;;0.00;0.00;;;;;;;11.77;100.00;100782.28;5036778;28;20028;-58
2023/06/30 02:31:30;;;;;;;1.00;0.22;;;;;;;11.70;100.00;100773.41;5037370;28;20086;-59
2023/06/30 02:33:56;;;;;;;0.17;0.17;;;;;;;11.66;100.00;100771.31;5032280;28;20037;-55
2023/06/30 02:36:21;;;;;;;0.20;0.20;;;;;;;11.68;100.00;100774.63;5037898;28;20288;-53
2023/06/30 02:38:46;;;;;;;0.20;0.10;;;;;;;11.65;100.00;100770.50;5038416;28;20168;-55
2023/06/30 02:41:11;;;;;;;1.10;0.20;;;;;;;11.62;100.00;100770.91;5039579;28;20041;-56
2023/06/30 02:43:37;;;;;;;0.43;0.08;;;;;;;11.52;100.00;100767.75;5037872;28;20029;-52
2023/06/30 02:46:02;;;;;;;3.00;0.15;;;;;;;11.52;100.00;100768.56;5039036;28;20371;-50
2023/06/30 02:48:27;;;;;;;0.13;0.13;;;;;;;11.54;100.00;100769.19;5035244;28;20497;-53
2023/06/30 02:50:53;;;;;;;1.27;0.20;;;;;;;11.55;100.00;100775.31;5034962;28;20090;-50
2023/06/30 02:53:18;;;;;;;0.52;0.10;;;;;;;11.52;100.00;100779.19;5038940;28;20029;-50
2023/06/30 02:55:43;;;;;;;0.20;0.20;;;;;;;11.56;100.00;100772.50;5037773;28;20044;-56
2023/06/30 02:58:09;;;;;;;0.13;0.13;;;;;;;11.58;100.00;100765.13;5038149;28;20043;-52
2023/06/30 03:00:34;;;;;;;1.92;0.17;;;;;;;11.51;100.00;100769.59;5038343;28;20033;-50
2023/06/30 03:02:59;;;;;;;3.20;0.65;;;;;;;11.42;100.00;100768.06;5036868;28;20389;-51
2023/06/30 03:05:25;;;;;;;0.20;0.20;;;;;;;11.29;100.00;100768.75;5041822;28;20291;-50
2023/06/30 03:07:50;;;;;;;0.00;0.00;;;;;;;11.21;100.00;100768.03;5038220;28;20462;-57
2023/06/30 03:10:15;;;;;;;9.95;1.27;;;;;;;11.15;100.00;100766.94;5042991;28;20187;-52
2023/06/30 03:12:41;;;;;;;0.20;0.08;;;;;;;11.16;100.00;100767.78;5037703;28;20033;-52
2023/06/30 03:15:07;;;;;;;2.25;0.25;;;;;;;11.14;100.00;100767.97;5049566;28;20040;-54
2023/06/30 03:17:32;;;;;;;2.58;0.30;;;;;;;11.16;100.00;100765.13;5035226;28;20040;-51
2023/06/30 03:19:57;;;;;;;0.00;0.00;;;;;;;11.22;100.00;100759.06;5040018;28;20044;-53
2023/06/30 03:22:23;;;;;;;0.50;0.30;;;;;;;11.18;100.00;100763.94;5035171;28;20069;-50
2023/06/30 03:24:48;;;;;;;0.73;0.20;;;;;;;10.98;100.00;100761.06;5038731;28;20036;-52
2023/06/30 03:27:14;;;;;;;1.10;0.10;;;;;;;10.85;100.00;100764.38;5036165;28;20897;-52
2023/06/30 03:29:39;;;;;;;0.10;0.10;;;;;;;10.78;100.00;100758.16;5038257;28;20025;-52
2023/06/30 03:32:05;;;;;;;0.20;0.20;;;;;;;10.78;100.00;100757.34;5038914;28;20079;-50
2023/06/30 03:34:30;;;;;;;0.32;0.10;;;;;;;10.88;100.00;100752.56;5039135;28;20070;-50
2023/06/30 03:36:55;;;;;;;0.20;0.00;;;;;;;10.92;100.00;100759.16;5034435;28;20037;-52
2023/06/30 03:39:21;;;;;;;0.20;0.15;;;;;;;10.79;100.00;100759.81;5041536;28;20029;-50
2023/06/30 03:41:47;;;;;;;1.85;0.10;;;;;;;10.82;100.00;100763.94;5038077;28;20028;-57
2023/06/30 03:44:13;;;;;;;3.20;0.85;;;;;;;10.78;100.00;100765.28;5042174;28;20040;-52
2023/06/30 03:46:39;;;;;;;0.43;0.40;;;;;;;10.80;100.00;100761.44;5040806;28;20033;-57
2023/06/30 03:49:04;;;;;;;0.15;0.05;;;;;;;10.80;100.00;100764.09;5042503;28;20096;-54
2023/06/30 03:51:29;;;;;;;0.10;0.10;;;;;;;10.81;100.00;100762.28;5037194;28;20032;-56
2023/06/30 03:53:55;;;;;;;0.22;0.13;;;;;;;10.84;100.00;100767.19;5031409;28;20413;-54
2023/06/30 03:56:20;;;;;;;0.30;0.00;;;;;;;10.76;100.00;100762.81;5041534;28;20025;-56
2023/06/30 03:58:45;;;;;;;0.40;0.10;;;;;;;10.76;100.00;100764.66;5037169;28;20075;-53
2023/06/30 04:01:12;;;;;;;0.20;0.20;;;;;;;10.78;100.00;100760.81;5034353;28;20041;-56
2023/06/30 04:03:37;;;;;;;0.20;0.00;;;;;;;10.77;100.00;100763.66;5036464;28;20389;-55
2023/06/30 04:06:03;;;;;;;0.50;0.50;;;;;;;10.77;100.00;100761.00;5036455;28;20029;-55
2023/06/30 04:08:29;;;;;;;0.57;0.00;;;;;;;10.81;100.00;100751.66;5041682;28;20063;-56
2023/06/30 04:10:55;;;;;;;0.65;0.57;;;;;;;10.86;100.00;100754.56;5031416;28;20111;-57
2023/06/30 04:13:20;;;;;;;2.17;0.20;;;;;;;10.81;100.00;100752.47;5035801;28;20140;-52
2023/06/30 04:15:45;;;;;;;0.93;0.00;;;;;;;10.85;100.00;100758.25;5040914;28;20950;-54
2023/06/30 04:18:10;;;;;;;0.13;0.00;;;;;;;10.86;100.00;100750.09;5036921;28;20467;-52
2023/06/30 04:20:36;;;;;;;0.10;0.10;;;;;;;10.93;100.00;100754.66;5039133;28;20037;-55
2023/06/30 04:23:01;;;;;;;0.65;0.10;;;;;;;10.98;100.00;100741.66;5036824;28;20025;-53
2023/06/30 04:25:26;;;;;;;0.08;0.00;;;;;;;11.00;100.00;100739.66;5041461;28;20037;-51
2023/06/30 04:27:52;;;;;;;0.50;0.10;;;;;;;11.04;100.00;100740.91;5033275;28;20036;-55
2023/06/30 04:30:17;;;;;;;0.30;0.00;;;;;;;11.05;100.00;100731.94;5040611;28;20039;-57
2023/06/30 04:32:42;;;;;;;0.10;0.08;;;;;;;11.07;100.00;100727.25;5035777;28;20053;-56
2023/06/30 04:35:08;;;;;;;0.70;0.68;;;;;;;11.03;100.00;100726.00;5033920;28;20399;-53
2023/06/30 04:37:39;;;;;;;2.47;0.00;;;;;;;11.00;100.00;100734.34;5041144;28;20489;-53
2023/06/30 04:40:06;;;;;;;0.00;0.00;;;;;;;11.00;100.00;100737.00;5037035;28;20449;-57
2023/06/30 04:42:32;;;;;;;0.55;0.10;;;;;;;11.03;100.00;100733.97;5038526;28;20043;-54
2023/06/30 04:44:57;;;;;;;2.53;0.10;;;;;;;11.10;100.00;100733.03;5034162;28;20029;-54
2023/06/30 04:47:22;;;;;;;0.10;0.10;;;;;;;11.23;100.00;100732.34;5034673;28;20029;-53
2023/06/30 04:49:48;;;;;;;0.00;0.00;;;;;;;11.33;100.00;100740.81;5036466;28;20055;-56
2023/06/30 04:52:13;;;;;;;0.13;0.10;;;;;;;11.43;100.00;100732.50;5037982;28;20048;-58
2023/06/30 04:54:39;;;;;;;0.80;0.20;;;;;;;11.47;100.00;100730.31;5035430;28;20069;-54
2023/06/30 04:57:05;;;;;;;0.43;0.10;;;;;;;11.49;100.00;100728.28;5050182;28;20054;-56
2023/06/30 04:59:30;;;;;;;1.15;0.30;;;;;;;11.55;100.00;100723.03;5037483;28;20037;-57
2023/06/30 05:01:56;;;;;;;1.30;0.30;;;;;;;11.52;100.00;100715.44;5033142;28;20440;-56
2023/06/30 05:04:21;;;;;;;0.10;0.00;;;;;;;11.62;100.00;100711.66;5040139;28;20067;-55
2023/06/30 05:06:46;;;;;;;0.43;0.10;;;;;;;11.69;100.00;100707.19;5031703;28;20037;-54
2023/06/30 05:09:12;;;;;;;0.20;0.10;;;;;;;11.78;100.00;100714.84;5035630;28;20041;-56
2023/06/30 05:11:37;;;;;;;7.55;0.30;;;;;;;11.92;100.00;100713.13;5035850;28;20591;-58
2023/06/30 05:14:03;;;;;;;0.55;0.10;;;;;;;12.08;100.00;100719.16;5030276;28;20628;-55
2023/06/30 05:16:28;;;;;;;0.10;0.10;;;;;;;12.17;100.00;100718.00;5030748;28;20132;-58
2023/06/30 05:18:53;;;;;;;0.40;0.00;;;;;;;12.21;100.00;100713.94;5038891;28;20391;-57
2023/06/30 05:21:19;;;;;;;2.15;0.20;;;;;;;12.30;100.00;100710.09;5033919;28;20203;-56
2023/06/30 05:23:44;;;;;;;2.53;0.30;;;;;;;12.48;100.00;100704.25;5036693;28;20029;-58
2023/06/30 05:26:10;;;;;;;2.40;0.35;;;;;;;12.78;100.00;100702.09;5034238;28;20037;-56
2023/06/30 05:28:35;;;;;;;0.10;0.00;;;;;;;12.96;100.00;100703.38;5030574;28;20039;-57
2023/06/30 05:31:01;;;;;;;5.05;0.10;;;;;;;13.14;100.00;100706.28;5039790;28;20170;-56
2023/06/30 05:33:26;;;;;;;0.32;0.00;;;;;;;13.25;100.00;100708.34;5030482;28;20106;-55
2023/06/30 05:35:51;;;;;;;0.82;0.15;;;;;;;13.35;100.00;100707.19;5030535;28;20547;-55
2023/06/30 05:38:17;;;;;;;1.63;0.00;;;;;;;13.39;100.00;100708.38;5035484;28;20036;-57
2023/06/30 05:40:42;;;;;;;1.08;0.08;;;;;;;13.58;100.00;100702.25;5030177;28;20111;-57
2023/06/30 05:43:07;;;;;;;0.60;0.10;;;;;;;13.73;100.00;100702.88;5032320;28;20037;-55
2023/06/30 05:45:33;;;;;;;1.83;0.00;;;;;;;13.90;100.00;100700.59;5034409;28;20033;-56
2023/06/30 05:47:58;;;;;;;0.85;0.03;;;;;;;13.95;100.00;100697.31;5037839;28;20063;-54
2023/06/30 05:50:23;;;;;;;0.43;0.17;;;;;;;14.01;100.00;100693.78;5034936;28;20028;-57
2023/06/30 05:52:49;;;;;;;2.42;0.10;;;;;;;14.12;100.00;100697.66;5036780;28;20057;-53
2023/06/30 05:55:15;;;;;;;0.20;0.15;;;;;;;14.24;100.00;100684.50;5037294;28;20500;-59
2023/06/30 05:57:40;;;;;;;0.85;0.20;;;;;;;14.35;100.00;100683.84;5033853;28;20029;-57
2023/06/30 06:00:07;;;;;;;2.80;0.40;;;;;;;14.44;100.00;100679.13;5033130;28;20501;-55
2023/06/30 06:02:33;;;;;;;0.20;0.20;;;;;;;14.48;100.00;100680.31;5036028;28;20757;-56
2023/06/30 06:04:58;;;;;;;0.82;0.00;;;;;;;14.57;100.00;100679.91;5031459;28;20044;-54
2023/06/30 06:07:24;;;;;;;3.22;0.40;;;;;;;14.64;100.00;100674.53;5038742;28;20044;-57
2023/06/30 06:09:49;;;;;;;10.45;0.30;;;;;;;14.68;100.00;100685.59;5028632;28;20045;-56
2023/06/30 06:12:14;;;;;;;0.52;0.13;;;;;;;14.78;100.00;100676.09;5038779;28;20060;-58
2023/06/30 06:14:41;;;;;;;0.50;0.20;;;;;;;14.87;100.00;100679.34;5036755;28;20045;-56
2023/06/30 06:17:06;;;;;;;0.43;0.20;;;;;;;14.98;100.00;100681.31;5050395;28;20041;-55
2023/06/30 06:19:31;;;;;;;1.48;0.17;;;;;;;15.16;100.00;100677.91;5033320;28;20040;-58
2023/06/30 06:21:57;;;;;;;0.55;0.10;;;;;;;15.33;100.00;100667.50;5040248;28;20502;-58
2023/06/30 06:24:22;;;;;;;0.40;0.20;;;;;;;15.45;100.00;100663.09;5049640;28;20321;-56
2023/06/30 06:26:47;;;;;;;3.90;0.50;;;;;;;15.61;100.00;100660.91;5035130;28;20390;-57
2023/06/30 06:29:18;;;;;;;2.55;0.40;;;;;;;15.76;100.00;100664.09;5037521;28;20116;-58
2023/06/30 06:31:45;;;;;;;0.77;0.00;;;;;;;15.90;100.00;100668.28;5041846;28;20029;-53
2023/06/30 06:34:11;;;;;;;3.35;0.20;;;;;;;15.97;100.00;100654.81;5043697;28;20041;-58
2023/06/30 06:36:37;;;;;;;0.40;0.20;;;;;;;16.09;100.00;100663.75;5031711;28;20037;-54
2023/06/30 06:39:02;;;;;;;2.65;0.08;;;;;;;16.18;100.00;100666.94;5041095;28;20029;-52
2023/06/30 06:41:27;;;;;;;3.03;0.95;;;;;;;16.20;100.00;100662.19;5038443;28;20056;-58
2023/06/30 06:43:53;;;;;;;3.88;0.38;;;;;;;16.20;100.00;100662.19;5041061;28;20134;-51
2023/06/30 06:46:18;;;;;;;0.57;0.10;;;;;;;16.18;100.00;100658.91;5033338;28;20021;-52
2023/06/30 06:48:43;;;;;;;4.13;0.65;;;;;;;16.21;100.00;100655.81;5038640;28;20521;-52
2023/06/30 06:51:09;;;;;;;0.93;0.30;;;;;;;16.37;100.00;100657.06;5036288;28;20044;-55
2023/06/30 06:53:34;;;;;;;5.70;0.60;;;;;;;16.55;100.00;100662.38;5031215;28;20025;-51
2023/06/30 06:56:01;;;;;;;0.22;0.10;;;;;;;16.64;100.00;100657.50;5040410;28;20021;-54
2023/06/30 06:58:32;;;;;;;1.30;0.35;;;;;;;16.85;100.00;100660.75;5038885;28;20090;-48
2023/06/30 07:00:58;;;;;;;0.63;0.10;;;;;;;16.99;100.00;100648.81;5036611;28;20051;-53
2023/06/30 07:03:24;;;;;;;0.45;0.20;;;;;;;17.11;100.00;100651.50;5041925;28;20037;-54
2023/06/30 07:05:50;;;;;;;4.03;0.82;;;;;;;17.29;100.00;100658.66;5040526;28;20048;-57
2023/06/30 07:08:16;;;;;;;0.30;0.30;;;;;;;17.49;100.00;100647.59;5034225;28;20482;-55
2023/06/30 07:10:44;;;;;;;2.42;0.20;;;;;;;17.65;100.00;100644.22;5041198;28;20086;-53
2023/06/30 07:13:09;;;;;;;1.00;0.22;;;;;;;18.04;100.00;100645.41;5038382;28;20148;-51
2023/06/30 07:15:35;;;;;;;3.30;0.80;;;;;;;18.38;100.00;100632.13;5033177;28;20104;-46
2023/06/30 07:18:00;;;;;;;0.95;0.45;;;;;;;18.47;100.00;100633.34;5032323;28;20033;-49
2023/06/30 07:20:26;;;;;;;6.25;0.98;;;;;;;18.64;100.00;100637.94;4998928;28;20124;-53
2023/06/30 07:22:54;;;;;;;3.40;1.10;;;;;;;18.69;100.00;100651.47;5029336;28;20530;-53
2023/06/30 07:25:19;;;;;;;2.78;0.47;;;;;;;18.69;100.00;100640.72;5039238;28;20082;-49
2023/06/30 07:27:52;;;;;;;0.82;0.20;;;;;;;18.74;100.00;100641.66;5033072;28;20033;-53
2023/06/30 07:30:19;;;;;;;1.67;0.10;;;;;;;18.95;100.00;100640.16;5030499;28;20033;-51
2023/06/30 07:32:45;;;;;;;4.78;0.68;;;;;;;18.92;100.00;100635.28;5036383;28;20386;-59
2023/06/30 07:35:10;;;;;;;5.18;0.20;;;;;;;18.95;100.00;100624.03;5030845;28;20037;-52
2023/06/30 07:37:36;;;;;;;1.75;0.22;;;;;;;19.04;100.00;100629.81;5038771;28;20477;-60
2023/06/30 07:40:02;;;;;;;0.68;0.22;;;;;;;19.02;100.00;100629.25;5035929;28;20032;-48
2023/06/30 07:42:27;;;;;;;0.85;0.25;;;;;;;19.07;100.00;100632.00;5034769;28;20029;-50
2023/06/30 07:44:52;;;;;;;1.80;0.10;;;;;;;19.04;100.00;100634.38;5030504;28;20063;-51
2023/06/30 07:47:20;;;;;;;0.82;0.30;;;;;;;18.92;100.00;100632.59;5030235;28;20585;-49
2023/06/30 07:49:46;;;;;;;1.17;0.47;;;;;;;18.92;100.00;100629.91;5028667;28;20021;-49
2023/06/30 07:52:11;;;;;;;1.50;0.20;;;;;;;18.82;100.00;100634.25;5027398;28;20046;-49
2023/06/30 07:54:36;;;;;;;1.35;0.45;;;;;;;18.85;100.00;100631.13;5036467;28;20066;-55
2023/06/30 07:57:02;;;;;;;2.05;0.28;;;;;;;19.02;100.00;100637.31;5030146;28;20082;-48
2023/06/30 07:59:27;;;;;;;6.75;0.10;;;;;;;19.16;100.00;100632.44;5029557;28;20033;-52
2023/06/30 08:01:53;;;;;;;0.25;0.03;;;;;;;19.26;100.00;100629.09;5029682;28;20045;-57
2023/06/30 08:04:18;;;;;;;5.43;0.50;;;;;;;19.38;100.00;100627.13;5031843;28;20057;-52
2023/06/30 08:06:44;;;;;;;2.33;0.20;;;;;;;19.48;100.00;100623.78;5032350;28;20031;-49
2023/06/30 08:09:10;;;;;;;9.95;0.88;;;;;;;19.50;100.00;100621.66;5041329;28;20040;-50
2023/06/30 08:11:36;;;;;;;3.65;0.52;;;;;;;19.43;100.00;100618.34;5035572;28;20099;-60
2023/06/30 08:14:04;;;;;;;5.97;0.38;;;;;;;19.46;100.00;100621.31;5026631;28;20032;-58
2023/06/30 08:16:29;;;;;;;0.65;0.20;;;;;;;19.37;100.00;100629.00;5036364;28;20409;-56
2023/06/30 08:18:54;;;;;;;1.88;0.08;;;;;;;19.39;100.00;100616.13;5046524;28;20025;-54
2023/06/30 08:21:20;;;;;;;3.88;0.25;;;;;;;19.54;100.00;100614.72;5028405;28;20029;-45
2023/06/30 08:23:45;;;;;;;3.70;0.20;;;;;;;19.62;100.00;100617.00;5031132;28;20089;-47
2023/06/30 08:26:10;;;;;;;1.02;0.20;;;;;;;19.64;100.00;100606.78;5043253;28;20041;-53
2023/06/30 08:28:36;;;;;;;2.63;0.32;;;;;;;19.70;100.00;100605.03;5034801;28;20037;-51
2023/06/30 08:31:01;;;;;;;1.70;1.13;;;;;;;19.74;100.00;100595.41;5031836;28;20507;-47
2023/06/30 08:33:28;;;;;;;2.45;0.47;;;;;;;19.73;100.00;100599.97;5031599;28;20283;-56
2023/06/30 08:35:53;;;;;;;5.43;0.77;;;;;;;19.77;100.00;100598.44;5030468;28;20061;-54
2023/06/30 08:38:19;;;;;;;0.30;0.28;;;;;;;19.90;100.00;100593.72;5032781;28;20065;-55
2023/06/30 08:40:44;;;;;;;0.52;0.40;;;;;;;20.00;100.00;100600.03;5032057;28;20037;-49
2023/06/30 08:43:13;;;;;;;2.42;0.32;;;;;;;20.03;100.00;100590.66;5035758;28;20111;-60
2023/06/30 08:45:39;;;;;;;1.80;0.13;;;;;;;20.09;100.00;100584.28;5041908;28;20039;-47
2023/06/30 08:48:05;;;;;;;3.70;0.10;;;;;;;20.18;100.00;100577.38;5037072;28;20051;-50
2023/06/30 08:50:35;;;;;;;7.10;0.35;;;;;;;20.19;100.00;100568.25;5028618;28;20512;-52
2023/06/30 08:53:02;;;;;;;1.98;0.38;;;;;;;20.53;100.00;100570.75;5029551;28;20558;-50
2023/06/30 08:55:27;;;;;;;5.55;0.30;;;;;;;20.75;100.00;100572.56;5034598;28;20486;-50
2023/06/30 08:57:57;;;;;;;4.25;1.45;;;;;;;20.72;100.00;100573.91;5032374;28;20116;-52
2023/06/30 09:00:23;;;;;;;4.53;0.40;;;;;;;20.71;100.00;100571.47;5034646;28;20049;-47
2023/06/30 09:02:50;;;;;;;3.22;0.90;;;;;;;20.73;100.00;100563.91;5025377;28;20426;-51
2023/06/30 09:05:15;;;;;;;4.03;0.88;;;;;;;20.80;100.00;100561.84;5027330;28;20279;-48
2023/06/30 09:07:55;;;;;;;4.40;0.95;;;;;;;21.03;100.00;100561.47;5036803;28;20370;-45
2023/06/30 09:10:27;;;;;;;6.85;0.90;;;;;;;21.25;100.00;100550.59;5038201;28;20141;-62
2023/06/30 09:12:57;;;;;;;4.90;0.57;;;;;;;21.44;100.00;100551.00;5038477;28;20115;-64
2023/06/30 09:15:23;;;;;;;9.02;1.25;;;;;;;21.42;100.00;100541.53;5034885;28;20535;-57
2023/06/30 09:17:49;;;;;;;1.92;0.35;;;;;;;21.70;100.00;100533.03;5034172;28;20077;-53
2023/06/30 09:20:14;;;;;;;0.38;0.25;;;;;;;21.49;100.00;100526.75;5031054;28;20075;-46
2023/06/30 09:22:40;;;;;;;1.02;0.30;;;;;;;21.67;100.00;100525.47;5038092;28;20025;-53
2023/06/30 09:25:07;;;;;;;3.30;0.20;;;;;;;21.61;100.00;100523.00;5029678;28;20025;-54
2023/06/30 09:27:36;;;;;;;4.72;0.68;;;;;;;21.85;100.00;100518.78;5030259;28;20036;-46
2023/06/30 09:30:01;;;;;;;2.90;0.38;;;;;;;21.84;100.00;100513.66;5036100;28;20027;-53
2023/06/30 09:32:29;;;;;;;3.92;1.63;;;;;;;21.91;100.00;100527.72;5032795;28;20033;-64
2023/06/30 09:34:55;;;;;;;3.90;0.57;;;;;;;22.06;100.00;100513.44;5034436;28;20192;-59
2023/06/30 09:37:20;;;;;;;5.95;0.80;;;;;;;22.42;100.00;100533.25;5028107;28;20277;-57
2023/06/30 09:39:55;;;;;;;3.60;0.30;;;;;;;22.23;100.00;100514.06;5032307;28;20029;-50
2023/06/30 09:42:20;;;;;;;5.43;0.52;;;;;;;22.42;100.00;100507.06;5031430;28;20116;-51
2023/06/30 09:44:46;;;;;;;3.00;0.10;;;;;;;22.03;100.00;100511.28;5025327;28;20132;-47
2023/06/30 09:47:12;;;;;;;3.20;0.43;;;;;;;21.73;100.00;100502.00;5028403;28;20041;-59
2023/06/30 09:49:39;;;;;;;5.55;0.45;;;;;;;21.66;100.00;100499.56;5032552;28;20035;-57
2023/06/30 09:52:05;;;;;;;3.03;0.52;;;;;;;21.57;100.00;100495.75;5025228;28;20084;-47
2023/06/30 09:54:31;;;;;;;6.85;0.77;;;;;;;21.82;100.00;100486.94;5036562;28;20398;-54
2023/06/30 09:57:01;;;;;;;5.78;0.20;;;;;;;21.98;100.00;100482.38;5028671;28;20358;-53
2023/06/30 09:59:27;;;;;;;4.25;0.20;;;;;;;22.09;100.00;100470.53;5022796;28;20223;-53
2023/06/30 10:01:54;;;;;;;2.17;0.28;;;;;;;22.08;100.00;100477.00;5034787;28;20049;-45
2023/06/30 10:04:19;;;;;;;1.90;0.43;;;;;;;22.01;100.00;100479.16;5034432;28;20506;-49
2023/06/30 10:06:46;;;;;;;3.72;0.55;;;;;;;21.92;100.00;100481.56;5032056;28;20119;-50
2023/06/30 10:09:13;;;;;;;1.95;0.30;;;;;;;22.11;100.00;100478.38;5032815;28;20037;-51
2023/06/30 10:11:42;;;;;;;7.88;1.25;;;;;;;22.19;100.00;100475.16;5036951;28;20044;-49
2023/06/30 10:14:10;;;;;;;7.25;1.75;;;;;;;22.11;100.00;100479.16;5025329;28;20423;-48
2023/06/30 10:16:36;;;;;;;2.97;0.28;;;;;;;22.09;100.00;100470.53;5028435;28;20125;-54
2023/06/30 10:19:05;;;;;;;1.63;0.25;;;;;;;22.00;100.00;100478.34;5028868;28;20040;-49
2023/06/30 10:21:30;;;;;;;4.10;0.73;;;;;;;21.76;100.00;100472.63;5027938;28;20039;-59
2023/06/30 10:23:57;;;;;;;6.45;0.80;;;;;;;21.93;100.00;100464.28;5030263;28;20021;-58
2023/06/30 10:26:23;;;;;;;4.72;1.23;;;;;;;22.06;100.00;100465.66;5030658;28;20340;-55
2023/06/30 10:28:49;;;;;;;6.88;1.02;;;;;;;22.20;100.00;100455.16;5029308;28;20037;-48
2023/06/30 10:31:15;;;;;;;4.13;0.57;;;;;;;22.13;100.00;100457.31;5024022;28;20109;-54
2023/06/30 10:33:41;;;;;;;1.38;0.40;;;;;;;21.91;100.00;100452.13;5035238;28;20025;-60
2023/06/30 10:36:08;;;;;;;5.07;0.50;;;;;;;22.04;100.00;100462.41;5032576;28;20502;-54
2023/06/30 10:38:35;;;;;;;5.28;0.80;;;;;;;22.24;100.00;100453.56;5033087;28;20550;-47
2023/06/30 10:41:19;;;;;;;3.00;0.47;;;;;;;22.05;100.00;100439.75;5032631;28;20029;-50
2023/06/30 10:44:02;;;;;;;3.90;0.80;;;;;;;21.88;100.00;100428.38;5030340;28;20383;-55
2023/06/30 10:46:42;;;;;;;3.67;1.00;;;;;;;21.76;100.00;100434.00;5028499;28;20413;-63
2023/06/30 10:49:16;;;;;;;5.18;0.85;;;;;;;21.80;100.00;100439.72;5038596;28;20822;-58
2023/06/30 10:51:45;;;;;;;6.22;1.25;;;;;;;21.80;100.00;100445.09;5035326;28;20406;-49
2023/06/30 10:54:19;;;;;;;5.97;1.40;;;;;;;21.60;100.00;100427.78;5025635;28;20041;-51
2023/06/30 10:56:44;;;;;;;3.72;1.20;;;;;;;21.59;100.00;100423.47;5034412;28;20135;-47
2023/06/30 10:59:16;;;;;;;3.78;1.20;;;;;;;21.46;100.00;100430.16;5030669;28;20075;-57
2023/06/30 11:02:13;;;;;;;2.15;1.13;;;;;;;21.65;100.00;100430.47;5033215;28;20041;-47
2023/06/30 11:04:41;;;;;;;6.80;0.95;;;;;;;21.54;100.00;100432.34;5035305;28;20882;-49
2023/06/30 11:07:07;;;;;;;2.10;0.70;;;;;;;21.61;100.00;100428.56;5031465;28;20116;-52
2023/06/30 11:09:48;;;;;;;1.25;0.55;;;;;;;;;;5043117;28;20557;-55
2023/06/30 11:12:24;;;;;;;5.97;0.97;;;;;;;21.65;100.00;100411.59;5035976;28;20138;-62
2023/06/30 11:15:00;;;;;;;5.10;0.60;;;;;;;21.62;100.00;100414.03;5036818;28;20284;-48